Time;durP1;ratioP1;P1;durP2;ratioP2;P2;SDS_P1;SDS_P2;PMS_P1;PMS_P2;Temp;Humidity;BMP_temperature;BMP_pressure;BME280_temperature;BME280_humidity;BME280_pressure;Samples;Min_cycle;Max_cycle;Signal;HPM_P1;HPM_P2
2022/06/26 00:00:29;;;;;;;22.55;19.25;;;;;;;16.85;100.00;101118.03;5005985;28;20569;-78
2022/06/26 00:02:55;;;;;;;21.73;19.63;;;;;;;16.88;100.00;101123.88;5006031;28;20083;-78
2022/06/26 00:05:20;;;;;;;19.50;17.25;;;;;;;16.89;100.00;101125.56;5014613;28;20034;-78
2022/06/26 00:07:47;;;;;;;20.30;18.15;;;;;;;16.87;100.00;101121.38;5010588;28;20530;-78
2022/06/26 00:10:12;;;;;;;20.65;18.65;;;;;;;16.86;100.00;101101.94;5012498;28;20022;-79
2022/06/26 00:12:38;;;;;;;20.48;18.35;;;;;;;16.82;100.00;101124.47;5011195;28;20121;-78
2022/06/26 00:15:05;;;;;;;19.77;17.80;;;;;;;16.76;100.00;101125.03;5011220;28;20056;-78
2022/06/26 00:17:30;;;;;;;20.73;18.60;;;;;;;16.77;100.00;101126.72;5010823;28;20565;-78
2022/06/26 00:19:55;;;;;;;19.20;17.42;;;;;;;16.77;100.00;101126.72;5005270;28;20032;-78
2022/06/26 00:22:21;;;;;;;19.17;17.23;;;;;;;16.72;100.00;101134.28;5012171;28;20103;-78
2022/06/26 00:24:46;;;;;;;19.75;17.85;;;;;;;16.74;100.00;101142.94;5011650;28;20093;-78
2022/06/26 00:27:12;;;;;;;20.13;18.17;;;;;;;16.69;100.00;101139.88;5010592;28;20021;-78
2022/06/26 00:29:38;;;;;;;19.60;17.70;;;;;;;16.67;100.00;101136.53;5010296;28;20029;-78
2022/06/26 00:32:04;;;;;;;20.55;18.60;;;;;;;16.68;100.00;101143.53;5011749;28;20018;-78
2022/06/26 00:34:30;;;;;;;19.75;17.85;;;;;;;16.68;100.00;101143.53;5011018;28;20100;-77
2022/06/26 00:36:56;;;;;;;21.60;19.33;;;;;;;16.61;100.00;101139.75;5004368;28;20113;-78
2022/06/26 00:39:22;;;;;;;19.90;18.00;;;;;;;16.60;100.00;101151.38;5011152;28;20434;-77
2022/06/26 00:41:47;;;;;;;20.95;18.85;;;;;;;16.57;100.00;101157.81;5010344;28;20331;-77
2022/06/26 00:44:15;;;;;;;22.00;19.73;;;;;;;16.51;100.00;101157.56;5010440;28;20398;-78
2022/06/26 00:46:41;;;;;;;22.02;19.48;;;;;;;16.49;100.00;101164.84;5024888;28;20425;-77
2022/06/26 00:49:06;;;;;;;21.40;19.08;;;;;;;16.40;100.00;101161.19;5010260;28;20164;-77
2022/06/26 00:51:31;;;;;;;21.58;19.52;;;;;;;16.39;100.00;101164.00;5010427;28;20508;-78
2022/06/26 00:53:57;;;;;;;22.23;20.13;;;;;;;16.33;100.00;101167.22;5007736;28;20521;-77
2022/06/26 00:56:22;;;;;;;25.05;21.35;;;;;;;16.32;100.00;101173.50;5008841;28;20037;-78
2022/06/26 00:58:48;;;;;;;24.08;19.92;;;;;;;16.33;100.00;101180.50;5009768;28;20030;-78
2022/06/26 01:01:13;;;;;;;22.00;19.85;;;;;;;16.35;100.00;101174.06;5009086;28;20385;-78
2022/06/26 01:03:39;;;;;;;22.83;20.70;;;;;;;16.37;100.00;101176.56;5007525;28;20080;-78
2022/06/26 01:06:07;;;;;;;23.05;20.67;;;;;;;16.30;100.00;101174.50;5012128;28;20048;-78
2022/06/26 01:08:34;;;;;;;24.15;20.88;;;;;;;16.26;100.00;101173.09;5009671;28;20026;-77
2022/06/26 01:11:01;;;;;;;23.67;21.27;;;;;;;16.25;100.00;101176.75;5014499;28;20088;-78
2022/06/26 01:13:30;;;;;;;26.80;22.05;;;;;;;16.25;100.00;101187.38;5006037;28;20399;-78
2022/06/26 01:15:56;;;;;;;24.77;22.27;;;;;;;16.24;100.00;101188.34;5009802;28;20453;-78
2022/06/26 01:18:22;;;;;;;25.75;23.10;;;;;;;16.22;100.00;101189.47;5005119;28;20026;-78
2022/06/26 01:20:54;;;;;;;25.88;23.17;;;;;;;16.18;100.00;101188.09;5008325;28;20330;-78
2022/06/26 01:23:20;;;;;;;26.08;23.27;;;;;;;16.20;100.00;101194.91;5014821;28;20029;-78
2022/06/26 01:25:47;;;;;;;26.65;23.83;;;;;;;16.19;100.00;101187.94;5008871;28;20076;-79
2022/06/26 01:28:15;;;;;;;25.27;22.80;;;;;;;16.20;100.00;101186.13;5009307;28;20088;-78
2022/06/26 01:30:40;;;;;;;28.42;25.48;;;;;;;16.15;100.00;101189.19;5009619;28;20504;-77
2022/06/26 01:33:06;;;;;;;29.48;26.05;;;;;;;16.15;100.00;101191.84;5002261;28;20022;-78
2022/06/26 01:35:32;;;;;;;27.45;24.75;;;;;;;16.18;100.00;101193.38;5009926;28;20033;-78
2022/06/26 01:38:11;;;;;;;30.02;26.23;;;;;;;16.16;100.00;101198.00;5010196;28;20513;-78
2022/06/26 01:40:38;;;;;;;27.55;24.88;;;;;;;16.13;100.00;101196.47;5008516;28;20087;-78
2022/06/26 01:43:03;;;;;;;29.60;26.48;;;;;;;16.14;100.00;101198.16;5008614;28;20037;-78
2022/06/26 01:45:31;;;;;;;30.73;27.30;;;;;;;16.17;100.00;101202.34;5004528;28;20038;-77
2022/06/26 01:47:57;;;;;;;31.50;28.13;;;;;;;16.14;100.00;101192.84;5010029;28;20033;-78
2022/06/26 01:50:23;;;;;;;30.85;27.65;;;;;;;16.14;100.00;101192.84;5010419;28;20030;-78
2022/06/26 01:52:48;;;;;;;30.38;27.33;;;;;;;16.10;100.00;101191.44;5008691;28;20194;-78
2022/06/26 01:55:14;;;;;;;32.03;28.73;;;;;;;16.13;100.00;101193.81;5009855;28;20030;-77
2022/06/26 01:57:39;;;;;;;30.45;27.25;;;;;;;16.10;100.00;101186.13;5008693;28;20486;-77
2022/06/26 02:00:06;;;;;;;30.25;27.25;;;;;;;16.11;100.00;101185.16;5002241;28;20027;-78
2022/06/26 02:02:33;;;;;;;33.53;28.40;;;;;;;16.08;100.00;101188.09;5018967;28;20121;-78
2022/06/26 02:04:59;;;;;;;30.95;27.65;;;;;;;16.03;100.00;101173.56;5007555;28;20116;-78
2022/06/26 02:07:26;;;;;;;30.85;27.55;;;;;;;16.05;100.00;101183.06;5007653;28;20115;-79
2022/06/26 02:15:40;;;;;;;31.85;28.55;;;;;;;16.00;100.00;101169.34;5008110;28;20065;-79
2022/06/26 02:18:05;;;;;;;30.92;27.73;;;;;;;15.98;100.00;101163.34;4997022;28;20039;-79
2022/06/26 02:20:30;;;;;;;28.42;25.55;;;;;;;15.97;100.00;101166.97;5008306;28;20029;-79
2022/06/26 02:22:56;;;;;;;30.75;27.52;;;;;;;15.90;100.00;101161.41;5015713;28;20084;-79
2022/06/26 02:25:22;;;;;;;29.95;26.73;;;;;;;15.90;100.00;101168.53;5009142;28;20037;-79
2022/06/26 02:27:48;;;;;;;29.95;26.73;;;;;;;15.87;100.00;101168.81;5007856;28;20429;-79
2022/06/26 02:30:14;;;;;;;27.90;24.90;;;;;;;15.86;100.00;101167.97;5009076;28;20017;-79
2022/06/26 02:32:40;;;;;;;27.83;24.10;;;;;;;15.79;100.00;101171.31;5008497;28;20042;-81
2022/06/26 02:35:14;;;;;;;26.98;23.98;;;;;;;15.73;100.00;101182.50;5004022;28;20152;-81
2022/06/26 02:37:40;;;;;;;25.25;21.10;;;;;;;15.64;100.00;101179.69;5020827;28;20026;-79
2022/06/26 02:40:06;;;;;;;25.65;20.48;;;;;;;15.59;100.00;101189.84;5009848;28;20033;-79
2022/06/26 02:42:32;;;;;;;25.27;19.50;;;;;;;15.55;100.00;101191.06;5008672;28;20491;-81
2022/06/26 02:44:57;;;;;;;24.67;19.92;;;;;;;15.54;100.00;101186.75;5009427;28;20049;-81
2022/06/26 02:47:22;;;;;;;25.17;18.80;;;;;;;15.47;100.00;101188.28;5009940;28;20030;-79
2022/06/26 02:49:51;;;;;;;27.17;18.85;;;;;;;15.39;100.00;101189.94;5008467;28;20030;-77
2022/06/26 02:52:19;;;;;;;24.63;18.35;;;;;;;15.42;100.00;101201.13;5020347;28;20032;-78
2022/06/26 02:54:44;;;;;;;24.05;18.80;;;;;;;15.35;100.00;101197.34;5008058;28;20049;-78
2022/06/26 02:57:10;;;;;;;24.48;18.58;;;;;;;15.32;100.00;101203.75;5008979;28;20400;-77
2022/06/26 02:59:35;;;;;;;26.25;18.70;;;;;;;15.29;100.00;101205.84;5008942;28;20037;-78
2022/06/26 03:02:01;;;;;;;24.08;18.45;;;;;;;15.26;100.00;101211.41;5009011;28;20069;-78
2022/06/26 03:04:26;;;;;;;25.17;19.33;;;;;;;15.19;100.00;101215.53;5012781;28;20080;-78
2022/06/26 03:06:51;;;;;;;26.77;20.23;;;;;;;15.16;100.00;101215.81;5009632;28;20538;-78
2022/06/26 03:09:17;;;;;;;24.20;19.48;;;;;;;15.15;100.00;101206.19;5000717;28;20109;-78
2022/06/26 03:11:43;;;;;;;24.13;19.58;;;;;;;15.15;100.00;101216.78;5003974;28;20029;-79
2022/06/26 03:14:08;;;;;;;24.10;19.27;;;;;;;15.11;100.00;101215.38;5008090;28;20066;-78
2022/06/26 03:16:34;;;;;;;23.83;20.25;;;;;;;15.06;100.00;101226.38;5022810;28;20053;-78
2022/06/26 03:19:00;;;;;;;22.70;18.85;;;;;;;15.04;100.00;101223.88;5006295;28;20026;-78
2022/06/26 03:21:25;;;;;;;24.20;18.48;;;;;;;15.00;100.00;101227.75;5026119;28;20534;-78
2022/06/26 03:24:03;;;;;;;25.50;18.35;;;;;;;14.98;100.00;101235.00;5011361;28;20029;-78
2022/06/26 03:26:35;;;;;;;21.95;17.80;;;;;;;14.90;100.00;101240.13;5001360;28;20034;-78
2022/06/26 03:29:02;;;;;;;22.53;18.10;;;;;;;14.90;100.00;101242.78;5008481;28;20025;-78
2022/06/26 03:31:27;;;;;;;22.70;17.90;;;;;;;14.89;100.00;101230.50;5008160;28;20022;-78
2022/06/26 03:33:54;;;;;;;21.50;16.90;;;;;;;14.89;100.00;101229.66;5008033;28;20036;-78
2022/06/26 03:36:20;;;;;;;21.13;16.77;;;;;;;14.88;100.00;101244.72;5009068;28;20022;-78
2022/06/26 03:38:45;;;;;;;20.90;16.75;;;;;;;14.83;100.00;101252.22;5007989;28;20363;-79
2022/06/26 03:41:12;;;;;;;19.67;16.17;;;;;;;14.75;100.00;101246.72;5006637;28;20044;-80
2022/06/26 03:43:37;;;;;;;20.63;15.93;;;;;;;14.77;100.00;101258.03;5006979;28;20440;-80
2022/06/26 03:46:03;;;;;;;21.70;15.73;;;;;;;14.71;100.00;101274.44;5012525;28;20105;-78
2022/06/26 03:48:29;;;;;;;21.73;15.40;;;;;;;14.65;100.00;101265.19;5011050;28;20060;-78
2022/06/26 03:50:55;;;;;;;22.50;15.77;;;;;;;14.63;100.00;101267.16;5012733;28;20104;-78
2022/06/26 03:53:21;;;;;;;21.33;15.32;;;;;;;14.62;100.00;101268.13;5012502;28;20057;-78
2022/06/26 03:55:46;;;;;;;19.23;15.15;;;;;;;14.59;100.00;101268.38;5011934;28;20116;-78
2022/06/26 03:58:11;;;;;;;20.80;14.00;;;;;;;14.57;100.00;101272.97;5008141;28;20690;-78
2022/06/26 04:00:37;;;;;;;17.92;14.40;;;;;;;14.63;100.00;101261.00;5007974;28;20038;-78
2022/06/26 04:03:07;;;;;;;18.23;13.05;;;;;;;14.71;100.00;101254.09;5006221;28;20367;-78
2022/06/26 04:05:39;;;;;;;19.08;13.07;;;;;;;15.11;100.00;101249.84;5031703;28;20037;-78
2022/06/26 04:08:06;;;;;;;13.25;11.65;;;;;;;15.97;100.00;101254.56;5010343;28;20029;-78
2022/06/26 04:10:32;;;;;;;15.70;10.98;;;;;;;16.94;94.37;101250.03;5025086;28;20666;-78
2022/06/26 04:13:00;;;;;;;11.60;9.02;;;;;;;17.47;89.22;101258.22;5010894;28;20036;-78
2022/06/26 04:15:32;;;;;;;13.68;9.20;;;;;;;17.25;88.48;101263.94;5008328;28;20050;-78
2022/06/26 04:17:58;;;;;;;12.57;9.10;;;;;;;17.37;88.43;101251.28;5009551;28;20034;-79
2022/06/26 04:20:24;;;;;;;12.50;9.10;;;;;;;16.73;90.06;101257.34;5011210;28;20091;-78
2022/06/26 04:23:00;;;;;;;13.18;9.63;;;;;;;16.44;91.52;101268.84;5011495;28;20040;-79
2022/06/26 04:25:26;;;;;;;14.50;9.45;;;;;;;16.24;92.70;101262.69;5003710;28;20079;-81
2022/06/26 04:27:52;;;;;;;11.90;9.55;;;;;;;16.22;94.95;101269.97;5010283;28;20021;-79
2022/06/26 04:30:17;;;;;;;13.57;10.27;;;;;;;15.99;95.30;101279.16;5011512;28;20026;-79
2022/06/26 04:32:43;;;;;;;15.32;9.60;;;;;;;16.06;95.38;101282.97;5008634;28;20029;-79
2022/06/26 04:35:09;;;;;;;12.57;8.90;;;;;;;15.93;95.50;101298.28;5010963;28;20018;-79
2022/06/26 04:37:36;;;;;;;11.75;9.88;;;;;;;15.85;95.77;101300.78;5011668;28;20113;-79
2022/06/26 04:40:03;;;;;;;14.15;9.95;;;;;;;15.60;96.55;101316.22;5012420;28;20445;-78
2022/06/26 04:42:31;;;;;;;12.43;10.27;;;;;;;15.53;97.66;101308.91;5011357;28;20040;-79
2022/06/26 04:44:57;;;;;;;17.25;11.20;;;;;;;15.49;98.55;101313.63;5011938;28;20493;-81
2022/06/26 04:47:22;;;;;;;15.18;10.80;;;;;;;15.32;98.95;101316.91;5011933;28;20057;-78
2022/06/26 04:49:47;;;;;;;16.92;11.77;;;;;;;15.33;100.00;101324.75;5004569;28;20363;-79
2022/06/26 04:52:13;;;;;;;16.95;11.45;;;;;;;15.33;100.00;101329.19;5011529;28;20478;-77
2022/06/26 04:54:39;;;;;;;15.07;11.45;;;;;;;15.32;100.00;101327.53;5009961;28;20021;-77
2022/06/26 04:57:05;;;;;;;17.33;12.10;;;;;;;15.29;100.00;101319.84;5016434;28;20032;-77
2022/06/26 04:59:30;;;;;;;16.83;11.60;;;;;;;15.37;100.00;101320.00;5018480;28;20104;-77
2022/06/26 05:01:55;;;;;;;20.02;11.80;;;;;;;15.38;100.00;101319.03;5017187;28;20048;-77
2022/06/26 05:04:21;;;;;;;15.27;11.80;;;;;;;15.37;100.00;101330.63;5021497;28;20037;-77
2022/06/26 05:06:46;;;;;;;18.13;12.05;;;;;;;15.34;100.00;101322.94;5021112;28;20481;-77
2022/06/26 05:09:16;;;;;;;18.85;12.52;;;;;;;15.33;100.00;101323.91;5020305;28;20112;-77
2022/06/26 05:11:42;;;;;;;17.58;12.90;;;;;;;15.35;100.00;101327.25;5008662;28;20517;-76
2022/06/26 05:14:08;;;;;;;19.27;11.50;;;;;;;15.34;100.00;101328.22;5025724;28;20042;-77
2022/06/26 05:16:33;;;;;;;16.75;12.10;;;;;;;15.33;100.00;101331.84;5009149;28;20040;-77
2022/06/26 05:19:00;;;;;;;19.08;11.98;;;;;;;15.27;100.00;101335.88;5010609;28;20564;-78
2022/06/26 05:21:26;;;;;;;16.50;12.45;;;;;;;15.25;100.00;101326.38;5012550;28;20044;-78
2022/06/26 05:23:51;;;;;;;20.35;12.98;;;;;;;15.26;100.00;101331.53;5009723;28;20593;-78
2022/06/26 05:26:17;;;;;;;20.08;12.63;;;;;;;15.30;100.00;101329.47;5011112;28;20034;-79
2022/06/26 05:28:42;;;;;;;20.77;13.00;;;;;;;15.30;100.00;101330.31;5026069;28;20112;-80
2022/06/26 05:31:07;;;;;;;23.63;13.23;;;;;;;15.31;100.00;101334.63;5010568;28;20030;-80
2022/06/26 05:33:33;;;;;;;24.33;12.93;;;;;;;15.34;100.00;101326.41;5010476;28;20038;-77
2022/06/26 05:35:58;;;;;;;16.83;12.23;;;;;;;15.38;100.00;101324.34;5026713;28;20021;-80
2022/06/26 05:38:31;;;;;;;21.75;12.68;;;;;;;15.39;100.00;101336.63;5025572;28;20018;-78
2022/06/26 05:40:56;;;;;;;19.02;11.82;;;;;;;15.37;100.00;101335.91;5011034;28;20066;-79
2022/06/26 05:43:22;;;;;;;20.33;13.00;;;;;;;15.36;100.00;101344.84;5008743;28;20131;-79
2022/06/26 05:45:48;;;;;;;18.08;12.50;;;;;;;15.40;100.00;101354.22;5008517;28;20045;-77
2022/06/26 05:48:13;;;;;;;20.30;12.32;;;;;;;15.35;100.00;101353.78;5008688;28;20029;-79
2022/06/26 05:50:41;;;;;;;19.38;12.10;;;;;;;15.36;100.00;101355.44;5009303;28;20383;-78
2022/06/26 05:53:07;;;;;;;17.15;11.85;;;;;;;15.39;100.00;101363.13;5008490;28;20109;-77
2022/06/26 05:55:33;;;;;;;28.25;12.50;;;;;;;15.45;100.00;101375.88;5009917;28;20546;-78
2022/06/26 05:57:59;;;;;;;20.05;12.10;;;;;;;15.51;100.00;101375.34;5007293;28;20112;-77
2022/06/26 06:00:25;;;;;;;21.95;12.45;;;;;;;15.55;100.00;101374.09;5007351;28;20121;-77
2022/06/26 06:02:51;;;;;;;21.35;12.23;;;;;;;15.69;100.00;101367.66;5009524;28;20514;-77
2022/06/26 06:05:16;;;;;;;19.33;11.32;;;;;;;15.74;100.00;101380.50;5012305;28;20026;-79
2022/06/26 06:07:42;;;;;;;20.95;10.82;;;;;;;15.81;98.96;101382.47;5008395;28;20044;-77
2022/06/26 06:10:09;;;;;;;21.27;11.38;;;;;;;15.81;99.21;101376.34;5009376;28;20052;-78
2022/06/26 06:12:35;;;;;;;16.13;11.25;;;;;;;15.84;98.96;101386.69;5008853;28;20025;-77
2022/06/26 06:15:01;;;;;;;16.83;10.60;;;;;;;15.98;100.00;101384.47;5000584;28;20093;-77
2022/06/26 06:17:36;;;;;;;16.23;9.80;;;;;;;16.04;98.21;101376.97;5004187;28;20109;-77
2022/06/26 06:20:09;;;;;;;19.73;10.15;;;;;;;16.14;98.57;101378.69;5009369;28;20025;-78
2022/06/26 06:22:34;;;;;;;13.23;9.23;;;;;;;16.18;97.03;101364.16;5028905;28;20512;-77
2022/06/26 06:25:00;;;;;;;15.27;9.65;;;;;;;16.20;95.91;101362.19;5008232;28;20080;-79
2022/06/26 06:27:30;;;;;;;20.10;9.82;;;;;;;16.28;97.08;101367.66;5007265;28;20017;-77
2022/06/26 06:29:55;;;;;;;13.65;9.02;;;;;;;16.27;95.75;101376.59;5008168;28;20030;-77
2022/06/26 06:32:20;;;;;;;17.63;8.60;;;;;;;16.37;95.23;101383.72;5007329;28;20030;-78
2022/06/26 06:34:46;;;;;;;13.68;8.55;;;;;;;16.31;94.33;101393.09;5007877;28;20040;-78
2022/06/26 06:37:11;;;;;;;14.30;8.75;;;;;;;16.30;95.44;101389.59;5006908;28;20030;-78
2022/06/26 06:39:36;;;;;;;15.20;8.98;;;;;;;16.32;95.77;101396.59;5008394;28;20032;-78
2022/06/26 06:42:02;;;;;;;11.70;8.60;;;;;;;16.34;95.72;101395.47;5007629;28;20536;-77
2022/06/26 06:44:32;;;;;;;16.85;9.07;;;;;;;16.48;96.87;101403.06;5009426;28;20053;-77
2022/06/26 06:46:57;;;;;;;12.50;8.40;;;;;;;16.44;94.40;101414.09;5009879;28;20036;-77
2022/06/26 06:49:23;;;;;;;11.57;8.05;;;;;;;16.44;93.75;101411.44;5009442;28;20022;-78
2022/06/26 06:51:49;;;;;;;16.98;8.68;;;;;;;16.41;94.13;101427.63;5009075;28;20037;-77
2022/06/26 06:54:15;;;;;;;16.25;8.68;;;;;;;16.41;94.26;101439.13;5010378;28;20033;-77
2022/06/26 06:56:40;;;;;;;12.85;8.10;;;;;;;16.43;93.86;101442.47;5009296;28;20516;-77
2022/06/26 06:59:05;;;;;;;12.57;8.50;;;;;;;16.44;94.19;101451.28;5025632;28;20104;-78
2022/06/26 07:01:31;;;;;;;11.05;8.18;;;;;;;16.54;94.46;101460.94;5009288;28;20490;-77
2022/06/26 07:03:56;;;;;;;11.77;8.25;;;;;;;16.52;93.27;101462.06;5013868;28;20036;-77
2022/06/26 07:06:22;;;;;;;13.30;8.13;;;;;;;16.61;94.14;101478.03;5017450;28;20384;-78
2022/06/26 07:08:47;;;;;;;11.80;8.38;;;;;;;16.65;94.03;101467.13;5007786;28;20018;-78
2022/06/26 07:11:13;;;;;;;10.73;8.10;;;;;;;16.72;91.91;101474.44;5026583;28;20061;-78
2022/06/26 07:13:39;;;;;;;10.20;7.63;;;;;;;16.85;93.68;101475.03;5009721;28;20054;-78
2022/06/26 07:16:04;;;;;;;12.07;7.80;;;;;;;16.83;91.56;101466.34;5008702;28;20046;-78
2022/06/26 07:18:30;;;;;;;15.05;7.85;;;;;;;16.95;92.19;101461.72;5010493;28;20034;-78
2022/06/26 07:20:55;;;;;;;10.63;7.93;;;;;;;16.99;92.02;101472.91;5014511;28;20080;-79
2022/06/26 07:23:21;;;;;;;9.82;7.18;;;;;;;17.13;90.76;101475.16;5013549;28;20041;-79
2022/06/26 07:25:46;;;;;;;12.18;7.68;;;;;;;17.13;89.11;101465.34;5014386;28;20535;-78
2022/06/26 07:28:12;;;;;;;11.02;7.32;;;;;;;17.16;88.01;101461.56;5013363;28;20018;-78
2022/06/26 07:30:38;;;;;;;10.63;6.80;;;;;;;17.15;90.15;101468.72;5012448;28;20372;-79
2022/06/26 07:35:52;;;;;;;8.32;6.80;;;;;;;17.14;88.74;101479.50;5016148;28;20044;-79
2022/06/26 07:38:17;;;;;;;9.63;6.22;;;;;;;17.13;87.07;101472.50;5014014;28;20026;-79
2022/06/26 07:40:42;;;;;;;9.50;5.65;;;;;;;17.09;86.60;101482.56;5030391;28;20033;-79
2022/06/26 07:43:08;;;;;;;10.52;5.93;;;;;;;17.04;86.18;101489.28;5019063;28;20087;-82
2022/06/26 07:45:33;;;;;;;9.00;6.28;;;;;;;17.03;87.35;101480.47;5015587;28;20101;-83
2022/06/26 07:47:59;;;;;;;12.90;6.38;;;;;;;17.07;87.66;101483.69;5017990;28;20021;-83
2022/06/26 07:50:24;;;;;;;8.32;6.15;;;;;;;17.08;87.27;101480.06;5018107;28;20478;-83
2022/06/26 07:52:49;;;;;;;10.05;6.25;;;;;;;17.00;87.68;101482.56;5022693;28;20175;-83
2022/06/26 07:55:16;;;;;;;9.52;6.07;;;;;;;17.05;88.99;101475.84;5022631;28;20618;-83
2022/06/26 07:57:42;;;;;;;8.48;6.40;;;;;;;17.04;89.18;101478.66;5023300;28;20026;-83
2022/06/26 08:00:08;;;;;;;9.02;6.25;;;;;;;17.13;90.08;101476.00;5019037;28;20682;-81
2022/06/26 08:02:33;;;;;;;9.57;5.90;;;;;;;17.18;89.57;101480.88;5018216;28;20033;-81
2022/06/26 08:05:02;;;;;;;12.02;7.47;;;;;;;17.22;87.34;101492.94;5014406;28;20026;-82
2022/06/26 08:07:27;;;;;;;8.70;5.57;;;;;;;17.23;87.22;101498.13;5019715;28;20466;-82
2022/06/26 08:09:52;;;;;;;7.55;5.93;;;;;;;17.33;88.54;101491.97;5017261;28;20037;-82
2022/06/26 08:12:17;;;;;;;9.35;6.32;;;;;;;17.40;88.72;101501.88;5019186;28;20036;-82
2022/06/26 08:14:44;;;;;;;11.80;6.32;;;;;;;17.45;87.96;101498.78;5013384;28;20486;-81
2022/06/26 08:17:09;;;;;;;11.05;6.50;;;;;;;17.35;87.18;101503.28;5017344;28;20030;-81
2022/06/26 08:19:35;;;;;;;10.07;6.50;;;;;;;17.35;88.78;101498.81;5015918;28;20088;-80
2022/06/26 08:22:00;;;;;;;8.85;5.82;;;;;;;17.38;87.37;101503.84;5022057;28;20038;-80
2022/06/26 08:24:25;;;;;;;8.63;5.40;;;;;;;17.41;88.85;101502.72;5020699;28;20021;-81
2022/06/26 08:26:52;;;;;;;7.90;5.45;;;;;;;17.48;88.69;101504.66;5032749;28;20033;-80
2022/06/26 08:29:17;;;;;;;8.98;5.63;;;;;;;17.41;85.87;101505.38;5016031;28;20033;-80
2022/06/26 08:31:43;;;;;;;8.70;5.53;;;;;;;17.46;84.78;101495.16;5017609;28;20470;-80
2022/06/26 08:34:09;;;;;;;9.00;5.40;;;;;;;17.46;84.08;101495.16;5019911;28;20026;-80
2022/06/26 08:36:34;;;;;;;9.73;5.47;;;;;;;17.44;83.96;101486.47;5021205;28;20036;-80
2022/06/26 08:39:00;;;;;;;10.48;5.45;;;;;;;17.41;85.26;101482.28;5032587;28;20053;-81
2022/06/26 08:41:34;;;;;;;9.70;5.90;;;;;;;17.41;85.45;101492.91;5020934;28;20029;-81
2022/06/26 08:44:00;;;;;;;7.38;5.10;;;;;;;17.50;85.39;101500.03;5017622;28;20034;-80
2022/06/26 08:46:27;;;;;;;9.63;5.10;;;;;;;17.46;84.82;101514.63;5010004;28;20034;-81
2022/06/26 08:48:56;;;;;;;6.47;5.05;;;;;;;17.44;84.67;101508.59;5010295;28;20026;-81
2022/06/26 08:51:23;;;;;;;8.38;5.78;;;;;;;17.39;83.02;101505.53;5023297;28;20120;-81
2022/06/26 08:53:56;;;;;;;9.13;5.20;;;;;;;17.31;84.13;101512.53;5015706;28;20357;-81
2022/06/26 08:56:23;;;;;;;6.63;4.22;;;;;;;17.40;84.05;101517.84;5025866;28;20037;-80
2022/06/26 08:58:48;;;;;;;7.75;4.50;;;;;;;17.34;82.81;101513.09;5018647;28;20675;-81
2022/06/26 09:01:14;;;;;;;10.02;4.82;;;;;;;17.47;85.76;101513.63;5015127;28;20033;-80
2022/06/26 09:03:40;;;;;;;7.85;4.53;;;;;;;17.54;83.99;101520.06;5008199;28;20117;-81
2022/06/26 09:06:06;;;;;;;6.35;4.53;;;;;;;17.43;81.96;101512.25;5011098;28;20044;-81
2022/06/26 09:08:53;;;;;;;5.50;4.30;;;;;;;17.47;83.54;101518.94;5011978;28;20029;-80
2022/06/26 09:11:19;;;;;;;9.98;4.68;;;;;;;17.46;83.56;101511.94;5014321;28;20022;-80
2022/06/26 09:13:46;;;;;;;6.88;4.88;;;;;;;17.48;83.87;101510.00;5008870;28;20037;-81
2022/06/26 09:16:14;;;;;;;6.55;4.63;;;;;;;17.46;84.03;101511.94;5009776;28;20037;-80
2022/06/26 09:18:42;;;;;;;10.63;4.60;;;;;;;17.52;82.76;101506.06;5014111;28;20401;-80
2022/06/26 09:21:09;;;;;;;7.00;4.10;;;;;;;17.50;81.72;101507.19;5011118;28;20037;-80
2022/06/26 09:23:37;;;;;;;7.57;3.83;;;;;;;17.54;81.51;101516.56;5007314;28;20018;-80
2022/06/26 09:26:03;;;;;;;6.63;4.22;;;;;;;17.61;81.07;101523.03;5011637;28;20399;-80
2022/06/26 09:28:31;;;;;;;4.80;3.60;;;;;;;17.58;81.21;101523.28;5010970;28;20022;-80
2022/06/26 09:31:06;;;;;;;9.43;4.10;;;;;;;17.65;82.63;101526.22;5010661;28;20060;-81
2022/06/26 09:33:34;;;;;;;6.05;3.97;;;;;;;17.70;81.59;101534.66;5009585;28;20026;-80
2022/06/26 09:36:01;;;;;;;6.85;3.58;;;;;;;17.65;79.76;101518.25;5010502;28;20097;-81
2022/06/26 09:38:33;;;;;;;6.65;3.30;;;;;;;17.69;80.37;101501.03;5011319;28;20032;-81
2022/06/26 09:41:01;;;;;;;8.52;3.40;;;;;;;17.75;82.75;101511.94;5010403;28;20529;-80
2022/06/26 09:43:36;;;;;;;6.75;3.35;;;;;;;17.77;79.54;101519.78;5016314;28;20033;-81
2022/06/26 09:46:06;;;;;;;6.47;3.38;;;;;;;17.74;78.92;101525.41;5012815;28;20025;-81
2022/06/26 09:48:33;;;;;;;5.57;3.38;;;;;;;17.77;79.42;101525.09;5016724;28;20544;-81
2022/06/26 09:50:59;;;;;;;11.98;3.78;;;;;;;17.70;79.79;101514.19;5022898;28;20104;-82
2022/06/26 09:53:27;;;;;;;10.20;3.92;;;;;;;17.83;80.66;101525.38;5020231;28;20542;-82
2022/06/26 09:55:54;;;;;;;9.13;4.38;;;;;;;17.90;81.04;101533.63;5029502;28;20032;-81
2022/06/26 09:58:24;;;;;;;6.05;4.05;;;;;;;17.97;81.59;101531.22;5020326;28;20033;-82
2022/06/26 10:06:27;;;;;;;4.45;3.33;;;;;;;18.14;79.98;101533.13;5019590;28;20040;-81
2022/06/26 10:08:55;;;;;;;6.95;3.55;;;;;;;18.19;79.70;101530.03;5020741;28;20021;-82
2022/06/26 10:11:27;;;;;;;6.47;3.65;;;;;;;18.28;80.03;101535.31;5025107;28;20561;-82
2022/06/26 10:13:59;;;;;;;7.88;3.30;;;;;;;18.26;79.29;101547.94;5011561;28;20464;-82
2022/06/26 10:16:55;;;;;;;4.97;3.23;;;;;;;18.32;79.42;101557.16;5022930;28;20029;-82
2022/06/26 10:19:49;;;;;;;5.68;3.10;;;;;;;18.40;80.08;101562.59;5012152;28;20037;-81
2022/06/26 10:22:19;;;;;;;8.07;3.63;;;;;;;18.44;78.79;101561.34;5021976;28;20559;-81
2022/06/26 10:25:05;;;;;;;8.63;3.58;;;;;;;18.56;79.47;101554.00;5026101;28;20026;-81
2022/06/26 10:27:35;;;;;;;7.10;3.47;;;;;;;18.84;78.75;101546.88;5023952;28;20057;-81
2022/06/26 10:30:19;;;;;;;7.75;3.42;;;;;;;19.05;79.46;101545.56;5029265;28;20017;-81
2022/06/26 10:32:45;;;;;;;10.70;3.60;;;;;;;19.01;75.16;101554.03;5026453;28;20116;-81
2022/06/26 10:35:13;;;;;;;9.00;3.42;;;;;;;19.15;75.44;101555.34;5023727;28;20152;-81
2022/06/26 10:37:44;;;;;;;5.28;2.95;;;;;;;19.05;74.76;101553.59;5013968;28;20026;-81
2022/06/26 10:43:11;;;;;;;9.32;3.88;;;;;;;19.22;76.01;101545.75;5016739;28;20121;-81
2022/06/26 10:45:37;;;;;;;8.77;3.67;;;;;;;19.49;76.28;101548.31;5020044;28;20397;-81
2022/06/26 10:48:19;;;;;;;8.70;4.55;;;;;;;19.58;75.78;101546.56;5020271;28;20017;-81
2022/06/26 10:51:01;;;;;;;6.13;4.03;;;;;;;19.70;75.21;101540.00;5009925;28;20112;-81
2022/06/26 10:53:36;;;;;;;6.05;3.53;;;;;;;19.69;71.53;101546.34;5024031;28;20030;-81
2022/06/26 10:56:05;;;;;;;8.32;3.60;;;;;;;19.67;70.88;101545.66;5008953;28;20038;-80
2022/06/26 10:58:38;;;;;;;7.30;3.55;;;;;;;19.81;72.06;101553.09;5009683;28;20094;-81
2022/06/26 11:01:09;;;;;;;6.22;2.58;;;;;;;19.93;70.96;101551.84;5010206;28;20025;-82
2022/06/26 11:03:36;;;;;;;4.55;2.70;;;;;;;19.92;71.15;101550.16;4999899;28;20033;-80
2022/06/26 11:06:08;;;;;;;6.25;2.90;;;;;;;19.96;69.33;101546.19;5007188;28;20433;-81
2022/06/26 11:08:45;;;;;;;6.60;2.53;;;;;;;20.05;70.87;101547.09;5002420;28;20120;-80
2022/06/26 11:11:25;;;;;;;6.85;2.90;;;;;;;20.02;69.66;101545.59;5004043;28;20027;-81
2022/06/26 11:13:55;;;;;;;5.85;2.50;;;;;;;20.02;67.71;101532.22;4996782;28;20033;-81
2022/06/26 11:16:38;;;;;;;7.18;2.95;;;;;;;20.06;68.87;101531.91;5001017;28;20379;-81
2022/06/26 11:19:06;;;;;;;7.72;3.00;;;;;;;20.08;67.87;101537.94;4997918;28;20029;-82
2022/06/26 11:21:32;;;;;;;7.82;2.90;;;;;;;20.20;68.64;101520.63;5007972;28;20544;-81
2022/06/26 11:23:59;;;;;;;8.48;2.80;;;;;;;20.16;67.23;101525.44;4998640;28;20030;-81
2022/06/26 11:26:24;;;;;;;6.00;2.55;;;;;;;20.28;68.35;101517.97;5001763;28;20033;-80
2022/06/26 11:28:58;;;;;;;7.22;2.47;;;;;;;20.39;70.31;101525.69;5000940;28;20018;-80